createdAt,value
2019-05-05T00:00:24.204Z,101394.59
2019-05-05T00:02:58.117Z,101394.59
2019-05-05T00:05:31.793Z,101398.98
2019-05-05T00:08:05.521Z,101391.29
2019-05-05T00:10:39.226Z,101402.31
2019-05-05T00:13:14.920Z,101402.31
2019-05-05T00:15:48.503Z,101407.42
2019-05-05T00:18:22.286Z,101403.55
2019-05-05T00:20:55.992Z,101406.28
2019-05-05T00:23:29.701Z,101407.33
2019-05-05T00:26:04.427Z,101403.45
2019-05-05T00:28:38.262Z,101403.45
2019-05-05T00:31:11.982Z,101404.11
2019-05-05T00:33:45.679Z,101406.33
2019-05-05T00:36:19.367Z,101406.33
2019-05-05T00:38:55.002Z,101402.47
2019-05-05T00:41:28.448Z,101406.05
2019-05-05T00:44:02.140Z,101408.12
2019-05-05T00:46:35.838Z,101412.40
2019-05-05T00:49:09.513Z,101408.33
2019-05-05T00:51:44.367Z,101408.42
2019-05-05T00:54:18.177Z,101407.57
2019-05-05T00:56:54.336Z,101402.59
2019-05-05T00:59:27.287Z,101410.13
2019-05-05T01:02:00.972Z,101414.27
2019-05-05T01:04:35.232Z,101416.27
2019-05-05T01:07:09.040Z,101416.27
2019-05-05T01:09:44.982Z,101415.75
2019-05-05T01:12:18.143Z,101415.06
2019-05-05T01:14:51.835Z,101419.06
2019-05-05T01:17:25.548Z,101429.17
2019-05-05T01:20:03.187Z,101429.17
2019-05-05T01:22:34.631Z,101423.20
2019-05-05T01:25:08.865Z,101423.20
2019-05-05T01:27:42.545Z,101425.27
2019-05-05T01:30:18.430Z,101435.39
2019-05-05T01:32:52.127Z,101429.02
2019-05-05T01:35:26.196Z,101429.02
2019-05-05T01:37:59.895Z,101431.27
2019-05-05T01:40:35.346Z,101431.27
2019-05-05T01:43:08.975Z,101435.16
2019-05-05T01:45:42.742Z,101443.94
2019-05-05T01:48:16.462Z,101443.94
2019-05-05T01:50:51.033Z,101448.59
2019-05-05T01:53:24.806Z,101448.59
2019-05-05T01:55:58.497Z,101451.28
2019-05-05T01:58:32.199Z,101443.89
2019-05-05T02:01:05.884Z,101443.89
2019-05-05T02:03:39.596Z,101453.23
2019-05-05T02:06:14.265Z,101453.23
2019-05-05T02:08:48.399Z,101447.73
2019-05-05T02:11:24.623Z,101449.00
2019-05-05T02:13:58.052Z,101456.48
2019-05-05T02:16:31.754Z,101455.38
2019-05-05T02:19:05.458Z,101455.38
2019-05-05T02:21:39.154Z,101457.56
2019-05-05T02:24:14.512Z,101453.75
2019-05-05T02:26:48.234Z,101458.84
2019-05-05T02:29:22.419Z,101461.34
2019-05-05T02:31:57.977Z,101455.16
2019-05-05T02:34:31.664Z,101461.90
2019-05-05T02:37:05.695Z,101463.39
2019-05-05T02:42:25.075Z,101463.85
2019-05-05T02:44:59.113Z,101465.17
2019-05-05T02:47:35.302Z,101465.17
2019-05-05T02:50:08.993Z,101473.69
2019-05-05T02:52:44.259Z,101466.41
2019-05-05T02:55:18.088Z,101466.41
2019-05-05T02:57:51.778Z,101471.39
2019-05-05T03:00:25.471Z,101472.59
2019-05-05T03:02:59.154Z,101472.09
2019-05-05T03:05:34.071Z,101451.02
2019-05-05T03:08:07.836Z,101475.06
2019-05-05T03:10:41.509Z,101475.06
2019-05-05T03:13:15.193Z,101477.86
2019-05-05T03:15:58.099Z,101471.50
2019-05-05T03:18:33.743Z,101488.23
2019-05-05T03:21:07.523Z,101467.75
2019-05-05T03:23:41.553Z,101482.34
2019-05-05T03:26:15.425Z,101483.72
2019-05-05T03:28:49.105Z,101483.72
2019-05-05T03:31:26.163Z,101476.08
2019-05-05T03:33:58.560Z,101483.59
2019-05-05T03:36:33.928Z,101483.59
2019-05-05T03:39:07.697Z,101484.08
2019-05-05T03:41:41.408Z,101487.25
2019-05-05T03:44:15.081Z,101490.95
2019-05-05T03:46:48.811Z,101489.72
2019-05-05T03:49:24.354Z,101488.76
2019-05-05T03:51:58.111Z,101499.52
2019-05-05T03:54:31.819Z,101499.52
2019-05-05T03:57:05.499Z,101492.14
2019-05-05T03:59:41.001Z,101492.14
2019-05-05T04:02:14.701Z,101495.30
2019-05-05T04:04:48.412Z,101500.83
2019-05-05T04:07:24.147Z,101499.13
2019-05-05T04:09:57.507Z,101499.13
2019-05-05T04:12:31.974Z,101494.79
2019-05-05T04:15:05.674Z,101508.77
2019-05-05T04:17:39.367Z,101508.77
2019-05-05T04:20:13.832Z,101508.42
2019-05-05T04:22:47.556Z,101507.97
2019-05-05T04:25:21.243Z,101506.91
2019-05-05T04:27:54.942Z,101516.53
2019-05-05T04:30:28.648Z,101516.53
2019-05-05T04:33:03.777Z,101525.70
2019-05-05T04:35:37.564Z,101522.33
2019-05-05T04:38:11.272Z,101532.11
2019-05-05T04:40:44.948Z,101526.09
2019-05-05T04:43:18.649Z,101522.23
2019-05-05T04:45:54.110Z,101526.11
2019-05-05T04:48:27.910Z,101527.88
2019-05-05T04:51:01.611Z,101526.27
2019-05-05T04:53:35.326Z,101527.42
2019-05-05T04:56:09.018Z,101516.69
2019-05-05T04:58:43.991Z,101522.13
2019-05-05T05:01:17.800Z,101525.94
2019-05-05T05:03:51.504Z,101534.53
2019-05-05T05:06:25.206Z,101537.36
2019-05-05T05:08:58.900Z,101536.91
2019-05-05T05:11:33.551Z,101540.97
2019-05-05T05:14:07.379Z,101540.97
2019-05-05T05:16:41.065Z,101542.66
2019-05-05T05:19:14.775Z,101542.66
2019-05-05T05:21:59.359Z,101541.28
2019-05-05T05:24:23.880Z,101555.97
2019-05-05T05:26:57.569Z,101563.70
2019-05-05T05:29:31.283Z,101563.70
2019-05-05T05:32:04.972Z,101564.10
2019-05-05T05:34:39.120Z,101569.92
2019-05-05T05:37:14.897Z,101567.42
2019-05-05T05:39:48.622Z,101567.42
2019-05-05T05:42:24.111Z,101577.13
2019-05-05T05:44:57.706Z,101583.73
2019-05-05T05:47:31.415Z,101587.27
2019-05-05T05:50:06.371Z,101580.44
2019-05-05T05:52:40.139Z,101580.44
2019-05-05T05:55:14.558Z,101589.64
2019-05-05T05:57:48.404Z,101594.56
2019-05-05T06:00:23.760Z,101595.80
2019-05-05T06:02:57.631Z,101600.44
2019-05-05T06:05:31.331Z,101600.44
2019-05-05T06:08:05.108Z,101603.03
2019-05-05T06:10:38.815Z,101603.03
2019-05-05T06:13:15.280Z,101612.81
2019-05-05T06:15:49.069Z,101619.63
2019-05-05T06:18:24.338Z,101619.63
2019-05-05T06:20:58.232Z,101608.11
2019-05-05T06:23:31.927Z,101608.11
2019-05-05T06:26:07.124Z,101625.27
2019-05-05T06:28:41.008Z,101628.92
2019-05-05T06:31:14.768Z,101628.92
2019-05-05T06:33:48.464Z,101631.41
2019-05-05T06:36:23.437Z,101635.97
2019-05-05T06:38:57.375Z,101635.97
2019-05-05T06:41:31.072Z,101640.90
2019-05-05T06:44:04.813Z,101649.98
2019-05-05T06:46:38.515Z,101640.11
2019-05-05T06:49:13.620Z,101653.80
2019-05-05T06:51:47.515Z,101653.80
2019-05-05T06:54:21.230Z,101654.47
2019-05-05T06:56:54.914Z,101651.22
2019-05-05T06:59:28.706Z,101649.52
2019-05-05T07:02:04.278Z,101648.56
2019-05-05T07:04:37.800Z,101647.31
2019-05-05T07:07:11.499Z,101647.31
2019-05-05T07:09:45.207Z,101650.53
2019-05-05T07:12:18.905Z,101650.75
2019-05-05T07:14:53.782Z,101638.91
2019-05-05T07:17:27.705Z,101638.91
2019-05-05T07:20:01.697Z,101637.84
2019-05-05T07:22:35.608Z,101658.05
2019-05-05T07:25:09.303Z,101653.84
2019-05-05T07:27:44.302Z,101659.85
2019-05-05T07:30:18.117Z,101659.85
2019-05-05T07:32:53.716Z,101669.70
2019-05-05T07:35:27.223Z,101669.36
2019-05-05T07:38:01.096Z,101670.81
2019-05-05T07:40:34.893Z,101670.81
2019-05-05T07:43:08.648Z,101669.73
2019-05-05T07:45:44.436Z,101669.17
2019-05-05T07:48:17.819Z,101669.22
2019-05-05T07:51:01.178Z,101675.38
2019-05-05T07:53:26.959Z,101675.38
2019-05-05T07:56:00.665Z,101678.98
2019-05-05T07:58:34.629Z,101677.30
2019-05-05T08:01:08.451Z,101685.74
2019-05-05T08:03:44.375Z,101681.23
2019-05-05T08:06:17.583Z,101691.09
2019-05-05T08:08:51.268Z,101691.09
2019-05-05T08:11:24.968Z,101691.70
2019-05-05T08:13:58.665Z,101689.34
2019-05-05T08:16:33.679Z,101691.47
2019-05-05T08:19:07.565Z,101692.77
2019-05-05T08:21:41.272Z,101692.77
2019-05-05T08:24:14.978Z,101694.11
2019-05-05T08:26:48.737Z,101696.85
2019-05-05T08:29:23.911Z,101692.53
2019-05-05T08:31:57.870Z,101686.33
2019-05-05T08:34:33.843Z,101690.52
2019-05-05T08:37:06.992Z,101689.16
2019-05-05T08:39:40.706Z,101678.67
2019-05-05T08:42:14.543Z,101678.67
2019-05-05T08:44:48.314Z,101693.02
2019-05-05T08:47:22.025Z,101693.02
2019-05-05T08:49:55.732Z,101693.89
2019-05-05T08:52:29.446Z,101692.34
2019-05-05T08:55:04.716Z,101687.06
2019-05-05T08:57:38.562Z,101685.32
2019-05-05T09:00:13.941Z,101686.46
2019-05-05T09:02:47.694Z,101684.96
2019-05-05T09:05:23.673Z,101684.96
2019-05-05T09:07:56.858Z,101675.34
2019-05-05T09:10:30.588Z,101686.73
2019-05-05T09:13:04.306Z,101686.73
2019-05-05T09:15:38.015Z,101694.34
2019-05-05T09:18:13.967Z,101688.22
2019-05-05T09:20:47.297Z,101690.73
2019-05-05T09:23:21.027Z,101690.73
2019-05-05T09:25:54.795Z,101692.00
2019-05-05T09:28:28.567Z,101694.94
2019-05-05T09:31:04.164Z,101694.94
2019-05-05T09:33:37.814Z,101715.53
2019-05-05T09:36:13.784Z,101715.03
2019-05-05T09:38:46.936Z,101735.67
2019-05-05T09:41:20.645Z,101761.31
2019-05-05T09:43:54.343Z,101748.23
2019-05-05T09:46:28.063Z,101748.23
2019-05-05T09:49:01.791Z,101767.69
2019-05-05T09:51:35.577Z,101750.91
2019-05-05T09:54:13.963Z,101742.51
2019-05-05T09:56:44.753Z,101742.51
2019-05-05T09:59:18.521Z,101731.10
2019-05-05T10:01:53.799Z,101730.14
2019-05-05T10:04:27.743Z,101730.14
2019-05-05T10:07:01.481Z,101732.23
2019-05-05T10:09:35.740Z,101727.36
2019-05-05T10:12:09.444Z,101727.36
2019-05-05T10:14:44.898Z,101730.93
2019-05-05T10:17:18.791Z,101732.97
2019-05-05T10:19:54.539Z,101732.97
2019-05-05T10:22:29.661Z,101730.48
2019-05-05T10:25:05.117Z,101740.94
2019-05-05T10:27:44.728Z,101731.55
2019-05-05T10:30:14.605Z,101731.49
2019-05-05T10:32:48.334Z,101731.49
2019-05-05T10:35:23.753Z,101730.14
2019-05-05T10:37:57.596Z,101731.05
2019-05-05T10:40:31.376Z,101722.00
2019-05-05T10:43:05.092Z,101724.83
2019-05-05T10:45:38.821Z,101718.45
2019-05-05T10:48:14.419Z,101718.45
2019-05-05T10:50:48.384Z,101724.08
2019-05-05T10:53:22.197Z,101720.27
2019-05-05T10:55:55.908Z,101722.17
2019-05-05T10:58:29.644Z,101720.56
2019-05-05T11:01:04.257Z,101720.56
2019-05-05T11:03:38.316Z,101721.72
2019-05-05T11:06:13.690Z,101725.27
2019-05-05T11:08:47.592Z,101724.16
2019-05-05T11:11:21.300Z,101723.13
2019-05-05T11:13:55.005Z,101723.13
2019-05-05T11:16:28.712Z,101722.17
2019-05-05T11:19:04.283Z,101721.24
2019-05-05T11:21:37.834Z,101718.00
2019-05-05T11:24:11.548Z,101716.08
2019-05-05T11:26:45.425Z,101708.23
2019-05-05T11:29:19.189Z,101708.23
2019-05-05T11:31:52.981Z,101720.95
2019-05-05T11:34:26.680Z,101727.80
2019-05-05T11:37:00.399Z,101737.71
2019-05-05T11:39:34.171Z,101733.15
2019-05-05T11:42:07.979Z,101733.53
2019-05-05T11:44:41.710Z,101741.32
2019-05-05T11:47:15.418Z,101741.32
2019-05-05T11:49:49.391Z,101742.23
2019-05-05T11:52:23.107Z,101734.57
2019-05-05T11:55:09.000Z,101743.00
2019-05-05T11:57:32.208Z,101743.33
2019-05-05T12:00:06.998Z,101743.33
2019-05-05T12:02:40.711Z,101746.59
2019-05-05T12:05:14.423Z,101750.27
2019-05-05T12:07:48.141Z,101746.20
2019-05-05T12:10:23.382Z,101748.61
2019-05-05T12:12:57.483Z,101748.61
2019-05-05T12:15:31.227Z,101756.60
2019-05-05T12:18:04.927Z,101748.15
2019-05-05T12:20:39.280Z,101748.15
2019-05-05T12:23:13.543Z,101746.33
2019-05-05T12:25:47.367Z,101744.16
2019-05-05T12:28:21.123Z,101740.45
2019-05-05T12:30:55.670Z,101740.55
2019-05-05T12:33:29.409Z,101745.23
2019-05-05T12:36:04.456Z,101748.28
2019-05-05T12:38:38.284Z,101737.14
2019-05-05T12:41:12.040Z,101732.98
2019-05-05T12:43:45.865Z,101736.77
2019-05-05T12:46:24.254Z,101736.77
2019-05-05T12:48:57.806Z,101722.17
2019-05-05T12:51:31.508Z,101722.17
2019-05-05T12:54:05.198Z,101732.33
2019-05-05T12:56:38.922Z,101732.33
2019-05-05T12:59:14.280Z,101716.27
2019-05-05T13:01:48.214Z,101719.46
2019-05-05T13:04:21.960Z,101719.46
2019-05-05T13:06:55.662Z,101743.94
2019-05-05T13:09:29.433Z,101743.94
2019-05-05T13:12:04.512Z,101746.47
2019-05-05T13:14:38.417Z,101755.77
2019-05-05T13:17:14.052Z,101764.97
2019-05-05T13:19:47.712Z,101764.97
2019-05-05T13:22:21.413Z,101765.21
2019-05-05T13:24:55.125Z,101765.21
2019-05-05T13:27:28.835Z,101765.92
2019-05-05T13:30:04.400Z,101765.92
2019-05-05T13:32:38.291Z,101766.97
2019-05-05T13:35:14.234Z,101773.12
2019-05-05T13:37:47.393Z,101773.12
2019-05-05T13:40:21.228Z,101773.05
2019-05-05T13:42:54.971Z,101774.16
2019-05-05T13:45:28.686Z,101774.16
2019-05-05T13:48:03.484Z,101761.98
2019-05-05T13:50:37.425Z,101761.98
2019-05-05T13:53:11.226Z,101766.73
2019-05-05T13:55:46.086Z,101759.08
2019-05-05T13:58:19.934Z,101764.30
2019-05-05T14:00:54.647Z,101764.30
2019-05-05T14:03:28.560Z,101750.29
2019-05-05T14:06:04.151Z,101746.36
2019-05-05T14:08:37.672Z,101747.91
2019-05-05T14:11:14.081Z,101747.91
2019-05-05T14:13:48.573Z,101743.91
2019-05-05T14:16:22.422Z,101748.89
2019-05-05T14:18:56.143Z,101750.42
2019-05-05T14:21:29.838Z,101767.81
2019-05-05T14:24:03.850Z,101767.81
2019-05-05T14:26:37.709Z,101763.36
2019-05-05T14:29:11.520Z,101757.40
2019-05-05T14:31:45.210Z,101757.40
2019-05-05T14:34:18.955Z,101754.81
2019-05-05T14:36:53.460Z,101754.44
2019-05-05T14:39:27.326Z,101754.44
2019-05-05T14:42:01.026Z,101745.53
2019-05-05T14:44:34.738Z,101739.79
2019-05-05T14:47:08.442Z,101739.79
2019-05-05T14:49:42.149Z,101730.73
2019-05-05T14:52:17.723Z,101729.42
2019-05-05T14:54:51.432Z,101737.89
2019-05-05T14:57:25.132Z,101737.89
2019-05-05T14:59:58.843Z,101745.50
2019-05-05T15:02:34.625Z,101751.67
2019-05-05T15:05:08.024Z,101751.67
2019-05-05T15:07:41.716Z,101743.77
2019-05-05T15:10:15.483Z,101752.64
2019-05-05T15:12:49.202Z,101752.64
2019-05-05T15:15:23.548Z,101745.21
2019-05-05T15:17:57.466Z,101758.57
2019-05-05T15:20:31.207Z,101772.92
2019-05-05T15:23:04.900Z,101772.92
2019-05-05T15:25:38.601Z,101769.28
2019-05-05T15:28:13.889Z,101769.28
2019-05-05T15:30:47.686Z,101771.61
2019-05-05T15:33:21.418Z,101768.02
2019-05-05T15:35:55.107Z,101770.55
2019-05-05T15:38:28.832Z,101772.53
2019-05-05T15:41:04.000Z,101772.53
2019-05-05T15:43:37.930Z,101762.84
2019-05-05T15:46:11.637Z,101776.26
2019-05-05T15:48:45.342Z,101776.26
2019-05-05T15:51:19.123Z,101772.77
2019-05-05T15:53:54.227Z,101771.06
2019-05-05T15:56:28.289Z,101771.06
2019-05-05T15:59:02.040Z,101779.45
2019-05-05T16:01:35.806Z,101785.93
2019-05-05T16:04:09.612Z,101793.23
2019-05-05T16:06:44.512Z,101787.99
2019-05-05T16:09:18.449Z,101787.99
2019-05-05T16:11:54.417Z,101790.25
2019-05-05T16:14:27.645Z,101784.61
2019-05-05T16:17:06.454Z,101791.11
2019-05-05T16:19:39.818Z,101791.11
2019-05-05T16:22:14.284Z,101793.00
2019-05-05T16:24:51.328Z,101790.62
2019-05-05T16:27:25.223Z,101781.52
2019-05-05T16:30:00.011Z,101779.94
2019-05-05T16:32:33.749Z,101780.23
2019-05-05T16:35:10.837Z,101780.23
2019-05-05T16:37:46.173Z,101777.52
2019-05-05T16:40:19.962Z,101777.52
2019-05-05T16:42:54.304Z,101779.53
2019-05-05T16:45:28.305Z,101770.94
2019-05-05T16:48:03.765Z,101771.27
2019-05-05T16:50:37.444Z,101771.27
2019-05-05T16:53:11.127Z,101775.00
2019-05-05T16:55:44.995Z,101781.78
2019-05-05T16:58:18.741Z,101771.23
2019-05-05T17:00:54.319Z,101772.98
2019-05-05T17:03:27.833Z,101761.91
2019-05-05T17:06:03.597Z,101770.22
2019-05-05T17:08:37.082Z,101770.22
2019-05-05T17:11:10.886Z,101768.96
2019-05-05T17:13:44.676Z,101761.35
2019-05-05T17:16:18.478Z,101761.35
2019-05-05T17:18:53.960Z,101774.75
2019-05-05T17:21:27.762Z,101774.75
2019-05-05T17:24:01.445Z,101779.55
2019-05-05T17:26:35.606Z,101777.41
2019-05-05T17:29:09.447Z,101773.23
2019-05-05T17:31:44.354Z,101779.32
2019-05-05T17:34:18.770Z,101779.32
2019-05-05T17:36:53.532Z,101784.50
2019-05-05T17:39:27.515Z,101783.52
2019-05-05T17:42:01.253Z,101783.52
2019-05-05T17:44:35.028Z,101790.84
2019-05-05T17:47:08.751Z,101790.84
2019-05-05T17:49:43.488Z,101790.84
2019-05-05T17:52:17.250Z,101793.42
2019-05-05T17:54:51.003Z,101774.62
2019-05-05T17:57:24.749Z,101789.48
2019-05-05T17:59:58.447Z,101785.87
2019-05-05T18:02:34.246Z,101785.87
2019-05-05T18:05:07.606Z,101794.52
2019-05-05T18:07:41.314Z,101800.00
2019-05-05T18:10:15.062Z,101800.00
2019-05-05T18:12:48.750Z,101800.42
2019-05-05T18:15:24.247Z,101800.42
2019-05-05T18:17:58.001Z,101803.72
2019-05-05T18:20:33.984Z,101808.80
2019-05-05T18:23:07.288Z,101802.08
2019-05-05T18:25:41.010Z,101802.08
2019-05-05T18:28:19.636Z,101806.56
2019-05-05T18:30:50.129Z,101805.57
2019-05-05T18:33:24.661Z,101810.26
2019-05-05T18:35:58.556Z,101810.26
2019-05-05T18:38:33.663Z,101816.67
2019-05-05T18:41:07.638Z,101817.19
2019-05-05T18:43:43.367Z,101794.15
2019-05-05T18:46:16.799Z,101794.15
2019-05-05T18:48:50.570Z,101817.29
2019-05-05T18:51:24.413Z,101817.29
2019-05-05T18:53:58.101Z,101818.99
2019-05-05T18:56:31.815Z,101827.91
2019-05-05T18:59:06.784Z,101823.41
2019-05-05T19:01:40.620Z,101823.41
2019-05-05T19:04:14.362Z,101832.63
2019-05-05T19:06:48.089Z,101828.41
2019-05-05T19:09:21.817Z,101832.78
2019-05-05T19:11:55.523Z,101827.82
2019-05-05T19:14:30.211Z,101826.80
2019-05-05T19:17:04.628Z,101832.81
2019-05-05T19:19:38.857Z,101832.81
2019-05-05T19:22:13.893Z,101830.59
2019-05-05T19:24:47.596Z,101835.33
2019-05-05T19:27:21.303Z,101839.23
2019-05-05T19:29:55.095Z,101846.66
2019-05-05T19:32:28.803Z,101840.42
2019-05-05T19:35:03.957Z,101842.20
2019-05-05T19:37:37.813Z,101845.16
2019-05-05T19:40:14.023Z,101845.16
2019-05-05T19:42:47.556Z,101841.05
2019-05-05T19:45:21.261Z,101846.94
2019-05-05T19:47:55.043Z,101846.94
2019-05-05T19:50:28.767Z,101847.50
2019-05-05T19:53:04.312Z,101846.17
2019-05-05T19:55:37.888Z,101848.88
2019-05-05T19:58:11.609Z,101825.11
2019-05-05T20:00:45.353Z,101822.45
2019-05-05T20:03:19.201Z,101822.45
2019-05-05T20:05:54.090Z,101846.33
2019-05-05T20:08:39.718Z,101842.41
2019-05-05T20:11:04.874Z,101842.41
2019-05-05T20:13:39.104Z,101849.47
2019-05-05T20:16:14.029Z,101849.47
2019-05-05T20:18:50.191Z,101851.81
2019-05-05T20:21:23.725Z,101855.65
2019-05-05T20:23:57.485Z,101855.65
2019-05-05T20:26:31.190Z,101852.69
2019-05-05T20:29:13.871Z,101851.06
2019-05-05T20:31:40.304Z,101848.13
2019-05-05T20:34:14.056Z,101855.45
2019-05-05T20:36:47.749Z,101854.22
2019-05-05T20:39:21.466Z,101854.22
2019-05-05T20:41:55.224Z,101850.15
2019-05-05T20:44:28.953Z,101853.73
2019-05-05T20:47:04.474Z,101843.71
2019-05-05T20:49:38.083Z,101837.25
2019-05-05T20:52:14.033Z,101841.98
2019-05-05T20:54:47.260Z,101841.98
2019-05-05T20:57:20.971Z,101845.47
2019-05-05T20:59:54.676Z,101845.47
2019-05-05T21:02:28.424Z,101843.34
2019-05-05T21:05:04.071Z,101847.77
2019-05-05T21:07:37.563Z,101854.03
2019-05-05T21:10:11.288Z,101854.03
2019-05-05T21:12:45.705Z,101855.30
2019-05-05T21:15:19.626Z,101853.33
2019-05-05T21:17:54.119Z,101858.31
2019-05-05T21:20:28.092Z,101858.31
2019-05-05T21:23:03.694Z,101860.84
2019-05-05T21:25:37.202Z,101860.28
2019-05-05T21:28:10.915Z,101860.28
2019-05-05T21:30:44.619Z,101856.23
2019-05-05T21:33:18.316Z,101860.50
2019-05-05T21:35:52.036Z,101840.42
2019-05-05T21:38:25.727Z,101834.00
2019-05-05T21:40:59.437Z,101841.27
2019-05-05T21:43:33.140Z,101843.59
2019-05-05T21:46:06.847Z,101848.05
2019-05-05T21:48:40.553Z,101845.40
2019-05-05T21:51:14.340Z,101845.30
2019-05-05T21:53:48.035Z,101845.44
2019-05-05T21:56:21.737Z,101845.44
2019-05-05T21:58:55.715Z,101846.59
2019-05-05T22:01:29.461Z,101846.59
2019-05-05T22:04:03.643Z,101842.64
2019-05-05T22:06:37.493Z,101841.08
2019-05-05T22:09:11.198Z,101842.25
2019-05-05T22:11:44.861Z,101838.20
2019-05-05T22:14:18.574Z,101838.20
2019-05-05T22:16:53.884Z,101843.69
2019-05-05T22:19:27.688Z,101840.27
2019-05-05T22:22:01.385Z,101834.14
2019-05-05T22:24:35.723Z,101830.73
2019-05-05T22:27:09.595Z,101830.73
2019-05-05T22:29:44.646Z,101827.81
2019-05-05T22:32:18.505Z,101827.81
2019-05-05T22:34:52.212Z,101828.32
2019-05-05T22:37:25.934Z,101825.72
2019-05-05T22:39:59.656Z,101818.45
2019-05-05T22:42:34.226Z,101818.45
2019-05-05T22:45:08.132Z,101821.42
2019-05-05T22:47:42.023Z,101820.92
2019-05-05T22:50:15.716Z,101816.59
2019-05-05T22:52:49.426Z,101813.23
2019-05-05T22:55:24.735Z,101814.75
2019-05-05T22:57:58.708Z,101825.63
2019-05-05T23:00:34.635Z,101824.55
2019-05-05T23:03:07.823Z,101818.60
2019-05-05T23:05:41.523Z,101813.53
2019-05-05T23:08:18.390Z,101813.53
2019-05-05T23:10:50.626Z,101819.70
2019-05-05T23:13:24.343Z,101819.70
2019-05-05T23:15:58.036Z,101808.17
2019-05-05T23:18:31.734Z,101808.17
2019-05-05T23:21:05.440Z,101793.91
2019-05-05T23:23:39.139Z,101793.91
2019-05-05T23:26:13.977Z,101816.91
2019-05-05T23:28:47.837Z,101813.30
2019-05-05T23:31:21.536Z,101808.86
2019-05-05T23:33:55.240Z,101805.03
2019-05-05T23:36:29.125Z,101805.03
2019-05-05T23:39:04.745Z,101806.62
2019-05-05T23:41:38.440Z,101802.31
2019-05-05T23:44:14.392Z,101802.31
2019-05-05T23:46:48.195Z,101804.45
2019-05-05T23:49:24.023Z,101803.61
2019-05-05T23:51:57.320Z,101803.61
2019-05-05T23:54:31.034Z,101791.95
2019-05-05T23:57:04.862Z,101794.58
2019-05-05T23:59:38.730Z,101800.54
